Time;durP1;ratioP1;P1;durP2;ratioP2;P2;SDS_P1;SDS_P2;PMS_P1;PMS_P2;Temp;Humidity;BMP_temperature;BMP_pressure;BME280_temperature;BME280_humidity;BME280_pressure;Samples;Min_cycle;Max_cycle;Signal;HPM_P1;HPM_P2
2022/06/09 00:01:32;;;;;;;18.23;4.55;;;;;;;;;;5068019;28;20574;-71
2022/06/09 00:03:57;;;;;;;14.55;4.28;;;;;;;;;;5070887;28;20024;-70
2022/06/09 00:06:24;;;;;;;13.68;3.72;;;;;;;;;;5055860;28;20029;-70
2022/06/09 00:08:50;;;;;;;16.80;4.43;;;;;;;;;;5067810;28;20153;-70
2022/06/09 00:11:18;;;;;;;14.93;3.53;;;;;;;;;;5068591;28;20062;-70
2022/06/09 00:13:44;;;;;;;16.35;3.85;;;;;;;;;;5067152;28;20377;-70
2022/06/09 00:16:10;;;;;;;20.38;3.55;;;;;;;;;;5069556;28;20039;-70
2022/06/09 00:18:35;;;;;;;21.52;4.68;;;;;;;;;;5055480;28;20029;-70
2022/06/09 00:21:01;;;;;;;19.70;3.75;;;;;;;;;;5071845;28;20111;-70
2022/06/09 00:23:26;;;;;;;10.90;3.50;;;;;;;;;;5071720;28;20040;-70
2022/06/09 00:25:52;;;;;;;12.80;3.42;;;;;;;;;;5072190;28;20043;-70
2022/06/09 00:28:18;;;;;;;17.50;3.97;;;;;;;;;;5072105;28;20167;-70
2022/06/09 00:30:43;;;;;;;13.52;3.88;;;;;;;;;;5071495;28;20019;-70
2022/06/09 00:33:08;;;;;;;15.37;4.07;;;;;;;;;;5069670;28;20025;-70
2022/06/09 00:35:33;;;;;;;24.17;4.05;;;;;;;;;;5071482;28;20274;-70
2022/06/09 00:37:59;;;;;;;18.73;3.20;;;;;;;;;;5070611;28;20020;-70
2022/06/09 00:40:24;;;;;;;13.65;3.58;;;;;;;;;;5071366;28;20278;-70
2022/06/09 00:42:49;;;;;;;17.00;3.00;;;;;;;;;;5075858;28;20450;-67
2022/06/09 00:45:21;;;;;;;20.20;3.08;;;;;;;;;;5073897;28;20115;-68
2022/06/09 00:47:46;;;;;;;19.33;2.90;;;;;;;;;;5068089;28;20035;-69
2022/06/09 00:50:15;;;;;;;14.20;2.67;;;;;;;;;;5067314;28;20024;-68
2022/06/09 00:52:43;;;;;;;17.17;3.90;;;;;;;;;;5067324;28;20023;-69
2022/06/09 00:55:14;;;;;;;16.60;3.35;;;;;;;;;;5070070;28;20586;-69
2022/06/09 00:58:02;;;;;;;13.98;3.25;;;;;;;;;;5066745;28;20029;-69
2022/06/09 01:00:30;;;;;;;26.77;4.50;;;;;;;;;;5069434;28;20017;-68
2022/06/09 01:02:57;;;;;;;15.18;3.80;;;;;;;;;;5064679;28;20753;-69
2022/06/09 01:05:23;;;;;;;17.75;3.90;;;;;;;;;;5069530;28;20048;-69
2022/06/09 01:07:51;;;;;;;15.90;3.20;;;;;;;;;;5067748;28;20025;-68
2022/06/09 01:10:17;;;;;;;21.05;4.47;;;;;;;;;;5064610;28;20119;-69
2022/06/09 01:12:43;;;;;;;19.13;3.80;;;;;;;;;;5068405;28;20111;-69
2022/06/09 01:15:15;;;;;;;17.08;4.72;;;;;;;;;;5069309;28;20034;-69
2022/06/09 01:17:45;;;;;;;13.82;3.10;;;;;;;;;;5066056;28;20382;-68
2022/06/09 01:20:30;;;;;;;11.73;2.85;;;;;;;;;;5068221;28;20028;-69
2022/06/09 01:23:15;;;;;;;23.00;3.67;;;;;;;;;;5075839;28;20023;-68
2022/06/09 01:25:52;;;;;;;17.60;2.88;;;;;;;;;;5074861;28;20051;-69
2022/06/09 01:28:20;;;;;;;10.68;2.17;;;;;;;;;;5070369;28;20055;-69
2022/06/09 01:30:52;;;;;;;15.70;2.40;;;;;;;;;;5071323;28;20096;-68
2022/06/09 01:33:17;;;;;;;15.13;2.63;;;;;;;;;;5072077;28;20365;-69
2022/06/09 01:35:50;;;;;;;13.53;3.07;;;;;;;;;;5073484;28;20016;-69
2022/06/09 01:38:15;;;;;;;19.92;3.30;;;;;;;;;;5069102;28;20910;-69
2022/06/09 01:40:40;;;;;;;11.88;2.70;;;;;;;;;;5069296;28;20025;-69
2022/06/09 01:43:06;;;;;;;11.53;2.33;;;;;;;;;;5070993;28;20031;-69
2022/06/09 01:45:36;;;;;;;17.70;3.03;;;;;;;;;;5071505;28;20651;-69
2022/06/09 01:48:04;;;;;;;18.73;2.85;;;;;;;;;;5069473;28;20374;-69
2022/06/09 01:50:46;;;;;;;14.38;3.08;;;;;;;;;;5072630;28;20016;-68
2022/06/09 01:53:13;;;;;;;9.95;2.10;;;;;;;;;;5075936;28;20028;-69
2022/06/09 01:55:42;;;;;;;21.02;3.45;;;;;;;;;;5075928;28;20023;-68
2022/06/09 01:58:09;;;;;;;9.27;2.42;;;;;;;;;;5075492;28;20070;-68
2022/06/09 02:00:35;;;;;;;14.23;2.78;;;;;;;;;;5074600;28;20063;-69
2022/06/09 02:03:02;;;;;;;17.00;2.67;;;;;;;;;;5069120;28;20024;-68
2022/06/09 02:05:29;;;;;;;11.73;2.85;;;;;;;;;;5069996;28;20028;-68
2022/06/09 02:07:58;;;;;;;11.10;2.50;;;;;;;;;;5065802;28;20047;-68
2022/06/09 02:10:37;;;;;;;18.17;3.33;;;;;;;;;;5066370;28;20039;-68
2022/06/09 02:13:05;;;;;;;23.48;3.15;;;;;;;;;;5071143;28;20492;-69
2022/06/09 02:15:34;;;;;;;11.15;2.28;;;;;;;;;;5069479;28;20028;-68
2022/06/09 02:18:03;;;;;;;23.85;3.40;;;;;;;;;;5068670;28;20494;-67
2022/06/09 02:20:28;;;;;;;13.45;2.88;;;;;;;;;;5068294;28;20024;-69
2022/06/09 02:22:54;;;;;;;18.33;2.47;;;;;;;;;;5069623;28;20032;-69
2022/06/09 02:25:19;;;;;;;10.10;3.10;;;;;;;;;;5070843;28;20025;-70
2022/06/09 02:27:44;;;;;;;19.23;2.83;;;;;;;;;;5070156;28;20282;-69
2022/06/09 02:30:09;;;;;;;15.63;2.50;;;;;;;;;;5069853;28;20555;-69
2022/06/09 02:32:35;;;;;;;14.70;2.63;;;;;;;;;;5070346;28;20277;-71
2022/06/09 02:35:00;;;;;;;22.05;2.72;;;;;;;;;;5070666;28;20389;-69
2022/06/09 02:37:25;;;;;;;16.02;3.10;;;;;;;;;;5066818;28;20046;-69
2022/06/09 02:39:51;;;;;;;12.50;2.97;;;;;;;;;;5072264;28;20027;-68
2022/06/09 02:42:16;;;;;;;19.97;3.10;;;;;;;;;;5068668;28;20273;-69
2022/06/09 02:44:41;;;;;;;25.77;3.23;;;;;;;;;;5071204;28;20356;-68
2022/06/09 02:47:06;;;;;;;18.15;3.45;;;;;;;;;;5068454;28;20278;-67
2022/06/09 02:49:32;;;;;;;25.92;2.97;;;;;;;;;;5069316;28;20029;-67
2022/06/09 02:51:57;;;;;;;11.93;3.08;;;;;;;;;;5067702;28;20410;-67
2022/06/09 02:54:22;;;;;;;20.20;3.30;;;;;;;;;;5075475;28;20562;-67
2022/06/09 02:56:47;;;;;;;16.40;2.80;;;;;;;;;;5071267;28;20274;-67
2022/06/09 02:59:13;;;;;;;22.90;3.83;;;;;;;;;;5070682;28;20282;-67
2022/06/09 03:01:38;;;;;;;17.02;3.20;;;;;;;;;;5068189;28;20413;-67
2022/06/09 03:04:05;;;;;;;16.30;2.97;;;;;;;;;;5068204;28;20029;-67
2022/06/09 03:06:30;;;;;;;14.95;2.83;;;;;;;;;;5052806;28;20035;-68
2022/06/09 03:08:55;;;;;;;16.85;2.88;;;;;;;;;;5068788;28;20016;-68
2022/06/09 03:11:20;;;;;;;13.70;2.93;;;;;;;;;;5068978;28;20016;-68
2022/06/09 03:13:46;;;;;;;22.50;3.03;;;;;;;;;;5069916;28;20751;-68
2022/06/09 03:16:13;;;;;;;15.55;3.30;;;;;;;;;;5067151;28;20353;-68
2022/06/09 03:18:38;;;;;;;18.02;3.40;;;;;;;;;;5065710;28;20435;-68
2022/06/09 03:21:04;;;;;;;23.08;4.90;;;;;;;;;;5069786;28;20028;-68
2022/06/09 03:23:29;;;;;;;23.42;3.25;;;;;;;;;;5076754;28;20023;-71
2022/06/09 03:25:54;;;;;;;21.45;3.92;;;;;;;;;;5069484;28;20020;-71
2022/06/09 03:28:20;;;;;;;21.70;3.90;;;;;;;;;;5069069;28;20058;-71
2022/06/09 03:30:45;;;;;;;13.75;2.92;;;;;;;;;;5051096;28;20743;-69
2022/06/09 03:33:10;;;;;;;18.00;3.20;;;;;;;;;;5068800;28;20045;-70
2022/06/09 03:35:35;;;;;;;18.85;4.00;;;;;;;;;;5068965;28;20059;-70
2022/06/09 03:38:01;;;;;;;21.55;4.22;;;;;;;;;;5069765;28;20082;-69
2022/06/09 03:40:28;;;;;;;20.00;5.60;;;;;;;;;;5073522;28;20108;-70
2022/06/09 03:42:53;;;;;;;22.13;5.10;;;;;;;;;;5069745;28;20275;-70
2022/06/09 03:45:18;;;;;;;13.30;4.75;;;;;;;;;;5069701;28;20028;-70
2022/06/09 03:47:44;;;;;;;20.40;4.75;;;;;;;;;;5069995;28;20087;-70
2022/06/09 03:50:21;;;;;;;32.65;6.10;;;;;;;;;;5073292;28;20043;-69
2022/06/09 03:52:47;;;;;;;22.98;4.63;;;;;;;;;;5071411;28;20020;-70
2022/06/09 03:55:12;;;;;;;21.42;4.45;;;;;;;;;;5073283;28;20031;-69
2022/06/09 03:57:38;;;;;;;28.52;4.60;;;;;;;;;;5070980;28;20016;-72
2022/06/09 04:00:05;;;;;;;15.85;5.30;;;;;;;;;;5073244;28;20044;-69
2022/06/09 04:02:30;;;;;;;27.10;5.68;;;;;;;;;;5070497;28;20026;-70
2022/06/09 04:04:56;;;;;;;18.77;4.30;;;;;;;;;;5078365;28;20024;-71
2022/06/09 04:07:21;;;;;;;26.13;5.32;;;;;;;;;;5071522;28;21074;-70
2022/06/09 04:09:46;;;;;;;18.43;5.23;;;;;;;;;;5073785;28;20074;-72
2022/06/09 04:12:11;;;;;;;23.08;5.35;;;;;;;;;;5070549;28;20377;-69
2022/06/09 04:14:37;;;;;;;24.73;5.00;;;;;;;;;;5074096;28;20031;-70
2022/06/09 04:17:02;;;;;;;21.80;6.03;;;;;;;;;;5071217;28;20455;-69
2022/06/09 04:19:27;;;;;;;21.30;5.18;;;;;;;;;;5073495;28;20349;-71
2022/06/09 04:21:53;;;;;;;20.88;5.43;;;;;;;;;;5076618;28;20021;-70
2022/06/09 04:24:18;;;;;;;22.65;5.53;;;;;;;;;;5071546;28;20031;-70
2022/06/09 04:26:44;;;;;;;23.58;5.25;;;;;;;;;;5071553;28;20028;-69
2022/06/09 04:29:13;;;;;;;29.27;5.53;;;;;;;;;;5071752;28;20070;-69
2022/06/09 04:31:39;;;;;;;20.37;6.23;;;;;;;;;;5056363;28;20095;-69
2022/06/09 04:34:05;;;;;;;20.35;6.05;;;;;;;;;;5056099;28;20035;-69
2022/06/09 04:36:30;;;;;;;22.27;7.28;;;;;;;;;;5068666;28;20024;-69
2022/06/09 04:38:55;;;;;;;34.88;8.13;;;;;;;;;;5071196;28;20024;-71
2022/06/09 04:41:20;;;;;;;36.67;9.88;;;;;;;;;;5074853;28;20076;-70
2022/06/09 04:43:46;;;;;;;28.93;8.63;;;;;;;;;;5072156;28;20433;-70
2022/06/09 04:46:15;;;;;;;26.83;8.48;;;;;;;;;;5069942;28;20286;-69
2022/06/09 04:48:41;;;;;;;24.10;7.20;;;;;;;;;;5077267;28;20027;-69
2022/06/09 04:51:07;;;;;;;30.23;8.80;;;;;;;;;;5069435;28;20057;-69
2022/06/09 04:53:33;;;;;;;27.05;6.28;;;;;;;;;;5057582;28;20020;-69
2022/06/09 04:55:58;;;;;;;20.48;6.30;;;;;;;;;;5074534;28;20024;-70
2022/06/09 04:58:24;;;;;;;30.58;6.68;;;;;;;;;;5054052;28;20020;-69
2022/06/09 05:00:49;;;;;;;22.50;7.25;;;;;;;;;;5070844;28;20029;-69
2022/06/09 05:03:14;;;;;;;27.67;6.77;;;;;;;;;;5068196;28;20029;-72
2022/06/09 05:05:44;;;;;;;29.70;6.23;;;;;;;;;;5072164;28;20278;-69
2022/06/09 05:08:11;;;;;;;34.65;7.15;;;;;;;;;;5069851;28;20295;-69
2022/06/09 05:10:37;;;;;;;24.40;6.88;;;;;;;;;;5070134;28;20492;-70
2022/06/09 05:13:05;;;;;;;32.45;7.65;;;;;;;;;;5072422;28;20017;-70
2022/06/09 05:15:31;;;;;;;33.08;7.43;;;;;;;;;;5072956;28;20447;-68
2022/06/09 05:17:58;;;;;;;21.83;7.18;;;;;;;;;;5069322;28;20103;-67
2022/06/09 05:20:23;;;;;;;30.90;8.10;;;;;;;;;;5073705;28;20055;-68
2022/06/09 05:22:48;;;;;;;39.50;9.32;;;;;;;;;;5071771;28;20055;-67
2022/06/09 05:25:14;;;;;;;30.38;9.90;;;;;;;;;;5071837;28;20024;-67
2022/06/09 05:27:39;;;;;;;30.00;8.23;;;;;;;;;;5069765;28;20108;-67
2022/06/09 05:30:05;;;;;;;30.55;8.52;;;;;;;;;;5068858;28;20036;-69
2022/06/09 05:32:30;;;;;;;30.63;7.97;;;;;;;;;;5065344;28;20055;-68
2022/06/09 05:34:56;;;;;;;24.27;7.20;;;;;;;;;;5069375;28;20484;-68
2022/06/09 05:37:21;;;;;;;25.02;6.90;;;;;;;;;;5065867;28;20289;-68
2022/06/09 05:45:14;;;;;;;32.88;8.35;;;;;;;;;;5069528;28;20127;-68
2022/06/09 05:47:39;;;;;;;19.55;7.82;;;;;;;;;;5066946;28;20532;-69
2022/06/09 05:50:06;;;;;;;33.88;8.35;;;;;;;;;;5066158;28;20020;-68
2022/06/09 05:52:31;;;;;;;27.70;7.70;;;;;;;;;;5057066;28;20526;-70
2022/06/09 05:54:57;;;;;;;32.78;8.35;;;;;;;;;;5067933;28;20028;-68
2022/06/09 05:57:22;;;;;;;27.48;8.13;;;;;;;;;;5067357;28;20020;-71
2022/06/09 05:59:48;;;;;;;34.78;10.50;;;;;;;;;;5067203;28;20074;-68
2022/06/09 06:02:15;;;;;;;30.30;8.93;;;;;;;;;;5067456;28;20103;-68
2022/06/09 06:04:40;;;;;;;27.15;7.82;;;;;;;;;;5066283;28;20090;-69
2022/06/09 06:07:06;;;;;;;27.30;8.20;;;;;;;;;;5068657;28;20032;-68
2022/06/09 06:09:32;;;;;;;39.08;7.90;;;;;;;;;;5072621;28;20270;-70
2022/06/09 06:11:58;;;;;;;39.28;7.57;;;;;;;;;;5064344;28;20080;-68
2022/06/09 06:14:24;;;;;;;30.98;9.30;;;;;;;;;;5062341;28;20020;-69
2022/06/09 06:16:49;;;;;;;27.65;10.98;;;;;;;;;;5069452;28;20066;-68
2022/06/09 06:19:17;;;;;;;46.15;14.38;;;;;;;;;;5068353;28;20012;-69
2022/06/09 06:21:42;;;;;;;36.30;11.63;;;;;;;;;;5071043;28;20099;-69
2022/06/09 06:24:08;;;;;;;43.55;11.70;;;;;;;;;;5070152;28;20099;-69
2022/06/09 06:26:33;;;;;;;30.50;11.57;;;;;;;;;;5063672;28;20408;-70
2022/06/09 06:28:59;;;;;;;33.60;10.77;;;;;;;;;;5068301;28;20166;-69
2022/06/09 06:31:25;;;;;;;30.58;10.05;;;;;;;;;;5067649;28;20509;-70
2022/06/09 06:33:50;;;;;;;39.25;10.80;;;;;;;;;;5068495;28;20279;-70
2022/06/09 06:36:15;;;;;;;35.67;10.77;;;;;;;;;;5065364;28;20733;-70
2022/06/09 06:38:40;;;;;;;40.00;10.87;;;;;;;;;;5067996;28;20281;-70
2022/06/09 06:41:06;;;;;;;41.85;12.02;;;;;;;;;;5065186;28;20274;-70
2022/06/09 06:43:31;;;;;;;41.03;11.90;;;;;;;;;;5069876;28;20055;-70
2022/06/09 06:45:56;;;;;;;31.33;10.38;;;;;;;;;;5089584;22;20052;-65
2022/06/09 06:48:22;;;;;;;28.93;9.97;;;;;;;;;;5086672;28;20036;-66
2022/06/09 06:50:47;;;;;;;24.15;9.30;;;;;;;;;;5087233;28;20353;-65
2022/06/09 06:53:12;;;;;;;27.75;8.32;;;;;;;;;;5085553;28;20020;-65
2022/06/09 06:55:38;;;;;;;27.17;8.90;;;;;;;;;;5094662;28;20103;-65
2022/06/09 06:58:03;;;;;;;28.95;9.50;;;;;;;;;;5086837;28;20282;-66
2022/06/09 07:00:28;;;;;;;37.38;8.98;;;;;;;;;;5088882;28;20024;-65
2022/06/09 07:02:53;;;;;;;23.85;9.32;;;;;;;;;;5088387;28;20073;-66
2022/06/09 07:05:19;;;;;;;34.50;8.43;;;;;;;;;;5086590;28;20020;-66
2022/06/09 07:07:44;;;;;;;21.70;8.90;;;;;;;;;;5087489;28;20027;-66
2022/06/09 07:10:10;;;;;;;29.17;8.80;;;;;;;;;;5092836;28;20031;-66
2022/06/09 07:12:36;;;;;;;32.50;9.27;;;;;;;;;;5077916;28;20267;-66
2022/06/09 07:15:01;;;;;;;20.35;9.20;;;;;;;;;;5081172;28;20031;-66
2022/06/09 07:17:26;;;;;;;27.67;8.55;;;;;;;;;;5077503;28;20480;-66
2022/06/09 07:19:51;;;;;;;30.10;10.40;;;;;;;;;;5074461;28;20495;-66
2022/06/09 07:22:17;;;;;;;30.35;9.20;;;;;;;;;;5080747;28;20027;-66
2022/06/09 07:24:43;;;;;;;30.70;10.05;;;;;;;;;;5079806;28;20154;-66
2022/06/09 07:27:08;;;;;;;29.33;10.43;;;;;;;;;;5083694;28;20073;-66
2022/06/09 07:29:34;;;;;;;28.58;9.75;;;;;;;;;;5084487;28;20027;-66
2022/06/09 07:32:00;;;;;;;38.47;11.20;;;;;;;;;;5081009;28;20454;-66
2022/06/09 07:34:25;;;;;;;31.73;9.35;;;;;;;;;;5088801;28;20016;-66
2022/06/09 07:36:50;;;;;;;24.10;11.05;;;;;;;;;;5090920;28;20063;-66
2022/06/09 07:39:15;;;;;;;36.27;10.70;;;;;;;;;;5099408;28;20061;-65
2022/06/09 07:41:41;;;;;;;22.87;9.53;;;;;;;;;;5091448;28;20746;-65
2022/06/09 07:44:07;;;;;;;30.93;10.60;;;;;;;;;;5090814;28;20274;-66
2022/06/09 07:46:33;;;;;;;35.30;12.73;;;;;;;;;;5097146;28;20303;-65
2022/06/09 07:48:59;;;;;;;36.92;12.43;;;;;;;;;;5099211;28;20031;-65
2022/06/09 07:51:25;;;;;;;30.83;12.88;;;;;;;;;;5094933;28;20025;-66
2022/06/09 07:53:51;;;;;;;34.25;12.60;;;;;;;;;;5096682;28;20024;-65
2022/06/09 07:56:17;;;;;;;43.17;13.73;;;;;;;;;;5084626;28;20012;-65
2022/06/09 07:58:42;;;;;;;28.75;10.70;;;;;;;;;;5100561;28;20065;-65
2022/06/09 08:01:07;;;;;;;30.85;10.95;;;;;;;;;;5077839;28;20028;-66
2022/06/09 08:03:33;;;;;;;32.40;11.00;;;;;;;;;;5091470;28;20024;-66
2022/06/09 08:05:58;;;;;;;26.58;10.10;;;;;;;;;;5093869;28;20023;-66
2022/06/09 08:08:23;;;;;;;29.33;11.03;;;;;;;;;;5100824;28;20015;-65
2022/06/09 08:10:49;;;;;;;32.87;11.53;;;;;;;;;;5094699;28;20354;-66
2022/06/09 08:13:14;;;;;;;34.17;11.95;;;;;;;;;;5093378;28;20265;-66
2022/06/09 08:15:40;;;;;;;36.15;12.13;;;;;;;;;;5085626;28;20020;-65
2022/06/09 08:18:06;;;;;;;39.15;12.30;;;;;;;;;;5095882;28;20031;-66
2022/06/09 08:20:32;;;;;;;30.08;12.50;;;;;;;;;;5092419;28;20024;-66
2022/06/09 08:23:05;;;;;;;32.00;11.07;;;;;;;;;;5083725;28;20106;-65
2022/06/09 08:25:30;;;;;;;34.85;13.88;;;;;;;;;;5094573;28;20114;-66
2022/06/09 08:27:57;;;;;;;32.28;11.65;;;;;;;;;;5083603;28;20158;-66
2022/06/09 08:30:23;;;;;;;31.20;10.65;;;;;;;;;;5095487;28;20090;-66
2022/06/09 08:32:48;;;;;;;25.17;11.30;;;;;;;;;;5104479;28;20434;-66
2022/06/09 08:35:15;;;;;;;27.03;12.67;;;;;;;;;;5095171;28;21421;-66
2022/06/09 08:37:41;;;;;;;29.95;11.40;;;;;;;;;;5096602;28;20418;-66
2022/06/09 08:40:06;;;;;;;26.90;10.68;;;;;;;;;;5087585;28;20107;-66
2022/06/09 08:42:39;;;;;;;29.50;10.88;;;;;;;;;;5091338;28;20015;-66
2022/06/09 08:45:08;;;;;;;23.48;9.50;;;;;;;;;;5090746;28;20025;-66
2022/06/09 08:47:38;;;;;;;22.08;8.90;;;;;;;;;;5089324;28;20085;-66
2022/06/09 08:50:27;;;;;;;25.33;9.80;;;;;;;;;;5100399;28;20353;-66
2022/06/09 08:52:52;;;;;;;35.25;10.88;;;;;;;;;;5078563;28;20017;-66
2022/06/09 08:55:20;;;;;;;29.48;9.88;;;;;;;;;;5090429;28;20020;-66
2022/06/09 08:57:46;;;;;;;26.35;10.10;;;;;;;;;;5092590;28;20073;-66
2022/06/09 09:00:17;;;;;;;20.65;10.20;;;;;;;;;;5099251;28;20419;-65
2022/06/09 09:02:45;;;;;;;21.27;10.30;;;;;;;;;;5098253;28;20028;-66
2022/06/09 09:05:26;;;;;;;31.30;10.48;;;;;;;;;;5094194;28;20027;-66
2022/06/09 09:07:54;;;;;;;28.50;10.63;;;;;;;;;;5091699;28;20514;-66
2022/06/09 09:10:24;;;;;;;28.52;11.45;;;;;;;;;;5088996;28;20073;-66
2022/06/09 09:13:08;;;;;;;25.92;12.30;;;;;;;;;;5106764;28;20428;-66
2022/06/09 09:15:40;;;;;;;25.35;10.15;;;;;;;;;;5090066;28;20387;-66
2022/06/09 09:18:14;;;;;;;23.40;9.77;;;;;;;;;;5087496;28;20405;-66
2022/06/09 09:21:00;;;;;;;30.80;10.52;;;;;;;;;;5097758;28;20124;-66
2022/06/09 09:23:36;;;;;;;33.70;11.07;;;;;;;;;;5081940;28;20156;-66
2022/06/09 09:26:09;;;;;;;25.23;12.02;;;;;;;;;;5088759;28;20020;-66
2022/06/09 09:28:51;;;;;;;32.40;11.15;;;;;;;;;;5097305;28;20134;-66
2022/06/09 09:31:16;;;;;;;26.10;9.90;;;;;;;;;;5098560;28;20020;-66
2022/06/09 09:33:42;;;;;;;18.50;9.52;;;;;;;;;;5088106;28;20376;-67
2022/06/09 09:36:17;;;;;;;24.25;9.32;;;;;;;;;;5092170;28;20016;-66
2022/06/09 09:38:47;;;;;;;26.48;8.38;;;;;;;;;;5080962;28;20020;-66
2022/06/09 09:41:25;;;;;;;21.27;8.50;;;;;;;;;;5080967;28;20016;-67
2022/06/09 09:43:50;;;;;;;18.55;8.60;;;;;;;;;;5096073;28;20023;-67
2022/06/09 09:46:22;;;;;;;22.40;9.47;;;;;;;;;;5104589;28;20054;-66
2022/06/09 09:48:48;;;;;;;17.85;7.72;;;;;;;;;;5091718;28;20286;-66
2022/06/09 09:51:13;;;;;;;17.80;6.93;;;;;;;;;;5091062;28;20478;-66
2022/06/09 09:53:45;;;;;;;29.98;7.07;;;;;;;;;;5083420;28;20277;-67
2022/06/09 09:56:16;;;;;;;17.05;7.25;;;;;;;;;;5098548;28;20077;-66
2022/06/09 09:58:44;;;;;;;21.08;6.78;;;;;;;;;;5098322;28;20036;-67
2022/06/09 10:01:25;;;;;;;20.42;6.25;;;;;;;;;;5089613;28;20032;-67
2022/06/09 10:09:28;;;;;;;14.95;5.50;;;;;;;;;;5085909;28;20088;-67
2022/06/09 10:11:56;;;;;;;15.82;6.20;;;;;;;;;;5099140;28;20025;-67
2022/06/09 10:14:33;;;;;;;19.83;5.72;;;;;;;;;;5101335;28;20602;-66
2022/06/09 10:16:59;;;;;;;16.42;5.05;;;;;;;;;;5083929;28;20080;-67
2022/06/09 10:19:26;;;;;;;10.75;4.95;;;;;;;;;;5099342;28;20424;-67
2022/06/09 10:21:51;;;;;;;18.95;5.00;;;;;;;;;;5089805;28;20015;-67
2022/06/09 10:24:19;;;;;;;16.42;5.05;;;;;;;;;;5086176;28;20546;-66
2022/06/09 10:26:46;;;;;;;19.58;5.55;;;;;;;;;;5099558;28;20020;-67
2022/06/09 10:29:21;;;;;;;13.73;5.70;;;;;;;;;;5096218;28;20015;-67
2022/06/09 10:31:52;;;;;;;15.27;5.10;;;;;;;;;;5100280;28;20020;-67
2022/06/09 10:34:17;;;;;;;18.23;5.10;;;;;;;;;;5094692;28;20023;-67
2022/06/09 10:36:43;;;;;;;11.10;4.25;;;;;;;;;;5100314;28;22056;-67
2022/06/09 10:39:15;;;;;;;14.30;4.60;;;;;;;;;;5085094;28;20024;-68
2022/06/09 10:41:53;;;;;;;12.82;4.38;;;;;;;;;;5088089;28;20027;-67
2022/06/09 10:44:18;;;;;;;10.50;3.83;;;;;;;;;;5097497;28;20352;-67
2022/06/09 10:55:14;;;;;;;10.65;4.60;;;;;;;;;;5096969;28;20035;-67
2022/06/09 10:55:32;;;;;;;17.73;4.88;;;;;;;;;;5084414;28;20031;-67
2022/06/09 10:58:06;;;;;;;12.32;4.47;;;;;;;;;;5092151;28;20020;-67
2022/06/09 11:00:39;;;;;;;14.93;3.97;;;;;;;;;;5095512;28;20066;-67
2022/06/09 11:03:13;;;;;;;9.10;3.70;;;;;;;;;;5100200;28;20043;-67
2022/06/09 11:05:42;;;;;;;3.00;1.60;;;;;;;;;;5090294;28;20030;-67
2022/06/09 11:08:17;;;;;;;5.68;2.13;;;;;;;;;;5085356;28;20743;-67
2022/06/09 11:10:42;;;;;;;6.72;1.98;;;;;;;;;;5088947;28;20480;-67
2022/06/09 11:13:26;;;;;;;7.30;2.40;;;;;;;;;;5095679;28;20028;-67
2022/06/09 11:16:00;;;;;;;4.65;2.17;;;;;;;;;;5107444;28;20034;-66
2022/06/09 11:18:26;;;;;;;9.63;2.67;;;;;;;;;;5079763;28;20476;-67
2022/06/09 11:20:51;;;;;;;16.35;4.50;;;;;;;;;;5092436;28;20051;-67
2022/06/09 11:23:29;;;;;;;5.85;2.63;;;;;;;;;;5085797;28;20020;-66
2022/06/09 11:26:11;;;;;;;5.95;3.25;;;;;;;;;;5080643;28;20055;-66
2022/06/09 11:28:46;;;;;;;8.90;3.40;;;;;;;;;;5092232;28;20027;-66
2022/06/09 11:31:20;;;;;;;13.25;3.78;;;;;;;;;;5095929;28;20375;-67
2022/06/09 11:33:57;;;;;;;10.18;3.53;;;;;;;;;;5084944;28;20090;-67
2022/06/09 11:36:26;;;;;;;8.55;3.63;;;;;;;;;;5082482;28;20020;-67
2022/06/09 11:39:13;;;;;;;15.90;4.20;;;;;;;;;;5089437;28;20503;-67
2022/06/09 11:41:38;;;;;;;8.43;4.25;;;;;;;;;;5091715;28;20107;-67
2022/06/09 11:44:11;;;;;;;5.25;3.53;;;;;;;;;;5091917;28;20562;-67
2022/06/09 11:46:38;;;;;;;8.25;4.00;;;;;;;;;;5082759;28;20423;-66
2022/06/09 11:49:24;;;;;;;13.40;4.72;;;;;;;;;;5077693;28;20374;-66
2022/06/09 11:51:49;;;;;;;8.07;4.88;;;;;;;;;;5077478;28;20063;-67
2022/06/09 11:54:33;;;;;;;15.15;5.00;;;;;;;;;;5093759;28;20471;-66
2022/06/09 11:57:18;;;;;;;14.90;5.80;;;;;;;;;;5087480;28;20454;-67
2022/06/09 12:00:01;;;;;;;13.20;5.07;;;;;;;;;;5092813;28;20048;-67
2022/06/09 12:02:44;;;;;;;15.27;5.85;;;;;;;;;;5085601;28;20496;-67
2022/06/09 12:05:15;;;;;;;13.02;4.88;;;;;;;;;;5103150;28;20027;-67
2022/06/09 12:07:48;;;;;;;7.85;4.38;;;;;;;;;;5082612;28;20023;-67
2022/06/09 12:10:28;;;;;;;15.50;5.68;;;;;;;;;;5090624;28;20027;-66
2022/06/09 12:13:12;;;;;;;13.68;4.80;;;;;;;;;;5100362;28;20027;-66
2022/06/09 12:15:48;;;;;;;14.10;5.25;;;;;;;;;;5092760;28;20015;-66
2022/06/09 12:18:17;;;;;;;14.98;5.97;;;;;;;;;;5089131;28;20086;-67
2022/06/09 12:20:58;;;;;;;15.35;6.05;;;;;;;;;;5093022;28;20035;-67
2022/06/09 12:23:43;;;;;;;15.48;6.70;;;;;;;;;;5091095;28;20523;-67
2022/06/09 12:26:16;;;;;;;16.70;7.18;;;;;;;;;;5096556;28;20027;-67
2022/06/09 12:28:44;;;;;;;7.90;4.63;;;;;;;;;;5098146;28;20681;-67
2022/06/09 12:31:11;;;;;;;19.10;4.65;;;;;;;;;;5094746;28;20016;-66
2022/06/09 12:33:37;;;;;;;12.73;4.18;;;;;;;;;;5087011;28;20028;-66
2022/06/09 12:36:04;;;;;;;13.63;4.68;;;;;;;;;;5090864;28;20330;-67
2022/06/09 12:38:32;;;;;;;9.30;4.25;;;;;;;;;;5090944;28;20047;-66
2022/06/09 12:41:07;;;;;;;9.75;3.42;;;;;;;;;;5088642;28;20446;-67
2022/06/09 12:43:37;;;;;;;10.48;4.00;;;;;;;;;;5101377;28;20459;-67
2022/06/09 12:46:14;;;;;;;12.90;4.43;;;;;;;;;;5092552;28;20063;-67
2022/06/09 12:48:40;;;;;;;12.95;4.80;;;;;;;;;;5093852;28;20108;-67
2022/06/09 12:51:08;;;;;;;17.73;5.60;;;;;;;;;;5101785;28;20107;-67
2022/06/09 12:53:36;;;;;;;18.73;6.22;;;;;;;;;;5090321;28;20023;-67
2022/06/09 12:56:06;;;;;;;11.93;4.85;;;;;;;;;;5090565;28;20020;-67
2022/06/09 12:58:31;;;;;;;;;;;;;;;;;;5087937;28;20024;-67
2022/06/09 13:00:58;;;;;;;13.82;4.95;;;;;;;;;;5103623;28;19910;-67
2022/06/09 13:03:26;;;;;;;9.95;4.95;;;;;;;;;;5101019;28;20024;-67
2022/06/09 13:05:52;;;;;;;14.02;3.63;;;;;;;;;;5089318;28;20391;-67
2022/06/09 13:08:19;;;;;;;10.75;3.65;;;;;;;;;;5088644;28;20020;-67
2022/06/09 13:11:01;;;;;;;12.90;4.45;;;;;;;;;;5088487;28;20549;-67
2022/06/09 13:13:26;;;;;;;16.85;3.85;;;;;;;;;;5082630;28;20426;-67
2022/06/09 13:15:53;;;;;;;10.77;3.60;;;;;;;;;;5084600;28;20384;-67
2022/06/09 13:18:27;;;;;;;11.18;3.70;;;;;;;;;;5093691;28;20499;-67
2022/06/09 13:21:07;;;;;;;11.25;3.65;;;;;;;;;;5091797;28;20031;-67
2022/06/09 13:23:32;;;;;;;17.08;3.72;;;;;;;;;;5090232;28;20476;-67
2022/06/09 13:25:58;;;;;;;17.73;4.60;;;;;;;;;;5097911;28;20082;-67
2022/06/09 13:28:29;;;;;;;4.90;2.85;;;;;;;;;;5099633;28;20128;-67
2022/06/09 13:30:55;;;;;;;4.53;1.98;;;;;;;;;;5092955;28;20042;-67
2022/06/09 13:33:24;;;;;;;4.68;2.33;;;;;;;;;;5090398;28;20047;-67
2022/06/09 13:35:51;;;;;;;5.80;1.92;;;;;;;;;;5086608;28;20032;-67
2022/06/09 13:38:31;;;;;;;4.20;1.95;;;;;;;;;;5085911;28;20030;-67
2022/06/09 13:40:58;;;;;;;5.60;1.40;;;;;;;;;;5097041;28;20475;-67
2022/06/09 13:43:29;;;;;;;4.68;1.48;;;;;;;;;;5094180;28;20071;-67
2022/06/09 13:45:54;;;;;;;;;;;;;;;;;;5093963;28;20030;-67
2022/06/09 13:48:21;;;;;;;2.80;1.38;;;;;;;;;;5092882;28;20356;-67
2022/06/09 13:50:46;;;;;;;3.08;1.00;;;;;;;;;;5091496;28;20059;-67
2022/06/09 13:53:20;;;;;;;6.10;1.43;;;;;;;;;;5093851;28;20052;-67
2022/06/09 13:55:45;;;;;;;6.05;1.10;;;;;;;;;;5080930;28;20024;-67
2022/06/09 13:58:11;;;;;;;3.92;0.98;;;;;;;;;;5085491;28;20024;-67
2022/06/09 14:00:56;;;;;;;5.30;1.17;;;;;;;;;;5101387;28;20035;-67
2022/06/09 14:03:28;;;;;;;7.63;1.02;;;;;;;;;;5089040;28;20231;-67
2022/06/09 14:05:55;;;;;;;1.65;0.85;;;;;;;;;;5099154;28;20472;-67
2022/06/09 14:08:22;;;;;;;7.45;1.10;;;;;;;;;;5096439;28;20030;-67
2022/06/09 14:10:48;;;;;;;2.72;1.10;;;;;;;;;;5091052;28;20136;-68
2022/06/09 14:13:13;;;;;;;5.18;0.90;;;;;;;;;;5090720;28;20395;-68
2022/06/09 14:15:40;;;;;;;2.65;1.10;;;;;;;;;;5095504;28;20016;-68
2022/06/09 14:18:06;;;;;;;2.65;0.93;;;;;;;;;;5095845;28;20019;-66
2022/06/09 14:20:33;;;;;;;3.22;0.85;;;;;;;;;;5099061;28;20399;-67
2022/06/09 14:22:59;;;;;;;8.18;1.17;;;;;;;;;;5092139;28;20024;-67
2022/06/09 14:25:25;;;;;;;4.35;1.30;;;;;;;;;;5092027;28;20016;-68
2022/06/09 14:27:50;;;;;;;3.05;0.98;;;;;;;;;;5088821;28;20127;-67
2022/06/09 14:30:16;;;;;;;3.58;1.27;;;;;;;;;;5096734;28;20510;-66
2022/06/09 14:32:42;;;;;;;3.40;1.17;;;;;;;;;;5093116;28;20027;-67
2022/06/09 14:35:08;;;;;;;2.60;0.95;;;;;;;;;;5092094;28;20020;-67
2022/06/09 14:37:33;;;;;;;8.38;1.00;;;;;;;;;;5098083;28;20016;-67
2022/06/09 14:39:58;;;;;;;1.77;0.60;;;;;;;;;;5087440;28;20016;-67
2022/06/09 14:42:23;;;;;;;2.10;0.60;;;;;;;;;;5088824;28;20411;-67
2022/06/09 14:44:49;;;;;;;1.70;0.60;;;;;;;;;;5097865;28;20282;-67
2022/06/09 14:47:16;;;;;;;1.77;0.67;;;;;;;;;;5086338;28;20089;-67
2022/06/09 14:49:41;;;;;;;1.48;0.70;;;;;;;;;;5086670;28;20020;-67
2022/06/09 14:52:06;;;;;;;4.03;1.15;;;;;;;;;;5093139;28;20028;-67
2022/06/09 14:54:32;;;;;;;4.32;0.80;;;;;;;;;;5083700;28;20099;-67